Time;durP1;ratioP1;P1;durP2;ratioP2;P2;SDS_P1;SDS_P2;PMS_P1;PMS_P2;Temp;Humidity;BMP_temperature;BMP_pressure;BME280_temperature;BME280_humidity;BME280_pressure;Samples;Min_cycle;Max_cycle;Signal;HPM_P1;HPM_P2
2023/09/17 00:02:17;;;;;;;7.40;7.00;;;22.90;23.60;;;;;;4977107;28;20183;-77
2023/09/17 00:04:43;;;;;;;7.73;7.23;;;22.90;23.60;;;;;;4977156;28;20202;-76
2023/09/17 00:07:09;;;;;;;7.53;7.13;;;22.90;23.60;;;;;;4976676;28;20174;-75
2023/09/17 00:09:35;;;;;;;7.60;7.20;;;22.80;23.60;;;;;;4975642;28;20591;-76
2023/09/17 00:12:00;;;;;;;8.20;7.70;;;22.80;23.60;;;;;;4977136;28;20418;-76
2023/09/17 00:14:26;;;;;;;8.30;7.70;;;22.80;23.70;;;;;;4976541;28;20210;-75
2023/09/17 00:16:52;;;;;;;9.10;8.53;;;22.80;23.90;;;;;;4977098;28;20639;-75
2023/09/17 00:19:17;;;;;;;10.30;9.60;;;22.80;24.00;;;;;;4976752;28;20173;-76
2023/09/17 00:21:43;;;;;;;10.40;9.70;;;22.80;24.10;;;;;;4976438;28;20261;-76
2023/09/17 00:24:08;;;;;;;11.03;10.20;;;22.80;24.40;;;;;;4976766;28;20185;-76
2023/09/17 00:26:34;;;;;;;11.03;10.33;;;22.70;24.80;;;;;;4976319;28;20222;-76
2023/09/17 00:29:00;;;;;;;11.10;10.10;;;22.70;25.00;;;;;;4976663;28;20550;-74
2023/09/17 00:31:27;;;;;;;11.93;11.07;;;22.70;25.00;;;;;;4976379;28;20258;-75
2023/09/17 00:33:53;;;;;;;9.90;9.30;;;22.70;25.00;;;;;;4976505;28;20465;-76
2023/09/17 00:36:20;;;;;;;10.37;9.70;;;22.70;25.00;;;;;;4976595;28;20517;-75
2023/09/17 00:38:45;;;;;;;10.17;9.57;;;22.70;25.30;;;;;;4976332;28;20198;-76
2023/09/17 00:41:12;;;;;;;9.57;8.67;;;22.60;25.20;;;;;;4976651;28;20414;-76
2023/09/17 00:43:38;;;;;;;10.17;9.57;;;22.60;25.30;;;;;;4976170;28;20170;-77
2023/09/17 00:46:04;;;;;;;9.00;8.40;;;22.70;25.40;;;;;;4975853;28;20441;-75
2023/09/17 00:48:31;;;;;;;9.40;8.70;;;22.60;25.40;;;;;;4974642;28;20185;-76
2023/09/17 00:50:57;;;;;;;9.30;8.70;;;22.60;25.20;;;;;;4976243;28;20476;-76
2023/09/17 00:53:24;;;;;;;8.90;8.40;;;22.40;25.60;;;;;;4975804;28;20445;-77
2023/09/17 00:55:50;;;;;;;9.80;9.10;;;22.40;26.00;;;;;;4975891;28;20183;-76
2023/09/17 00:58:16;;;;;;;9.33;8.70;;;22.30;26.20;;;;;;4976163;28;20493;-76
2023/09/17 01:00:43;;;;;;;8.73;8.23;;;22.30;26.30;;;;;;4977014;28;20426;-76
2023/09/17 01:03:09;;;;;;;9.30;8.70;;;22.20;26.40;;;;;;4977022;28;20171;-75
2023/09/17 01:05:40;;;;;;;9.03;8.53;;;22.20;26.50;;;;;;4977782;28;20504;-76
2023/09/17 01:08:06;;;;;;;9.17;8.67;;;22.20;26.50;;;;;;4977691;28;20515;-76
2023/09/17 01:10:39;;;;;;;9.70;8.80;;;22.30;26.60;;;;;;4974953;28;20418;-76
2023/09/17 01:13:05;;;;;;;9.80;9.27;;;22.40;26.50;;;;;;4975098;28;20461;-77
2023/09/17 01:15:31;;;;;;;8.87;8.27;;;22.30;26.40;;;;;;4975095;28;20426;-76
2023/09/17 01:17:57;;;;;;;8.90;8.40;;;22.30;26.50;;;;;;4973727;28;20186;-76
2023/09/17 01:20:31;;;;;;;9.57;9.03;;;22.30;26.40;;;;;;4973659;28;20170;-76
2023/09/17 01:23:02;;;;;;;8.70;8.20;;;22.30;26.50;;;;;;4974948;28;20406;-77
2023/09/17 01:25:52;;;;;;;9.33;8.80;;;22.30;26.50;;;;;;4975380;28;20453;-76
2023/09/17 01:28:18;;;;;;;9.40;8.90;;;22.20;26.50;;;;;;4974920;28;20419;-76
2023/09/17 01:30:45;;;;;;;8.37;7.87;;;22.20;26.50;;;;;;4973564;28;20410;-76
2023/09/17 01:33:11;;;;;;;8.97;8.47;;;22.30;26.50;;;;;;4974956;28;20508;-76
2023/09/17 01:36:16;;;;;;;8.67;8.10;;;22.20;26.50;;;;;;4975927;28;20828;-76
2023/09/17 01:38:46;;;;;;;9.47;8.97;;;22.30;26.60;;;;;;4975835;28;20170;-75
2023/09/17 01:41:13;;;;;;;9.43;8.83;;;22.20;26.60;;;;;;4974039;28;20482;-75
2023/09/17 01:43:40;;;;;;;8.40;7.90;;;22.20;27.00;;;;;;4973835;28;20424;-76
2023/09/17 01:46:07;;;;;;;8.60;7.90;;;22.30;26.50;;;;;;4975045;28;20434;-76
2023/09/17 01:48:32;;;;;;;8.10;7.60;;;22.30;26.60;;;;;;4974026;28;20445;-76
2023/09/17 01:50:59;;;;;;;8.60;7.90;;;22.30;26.50;;;;;;4974726;28;20453;-76
2023/09/17 01:53:25;;;;;;;8.17;7.77;;;22.30;26.50;;;;;;4975313;28;20215;-76
2023/09/17 01:55:52;;;;;;;8.57;8.10;;;22.30;26.60;;;;;;4975453;28;20426;-76
2023/09/17 01:58:18;;;;;;;8.73;7.93;;;22.30;26.60;;;;;;4974045;28;20175;-75
2023/09/17 02:00:44;;;;;;;7.87;7.43;;;22.30;26.80;;;;;;4975671;28;20407;-76
2023/09/17 02:03:10;;;;;;;7.93;7.53;;;22.20;26.70;;;;;;4975525;28;20418;-76
2023/09/17 02:05:35;;;;;;;8.20;7.80;;;22.20;26.70;;;;;;4975581;28;20190;-76
2023/09/17 02:08:01;;;;;;;8.90;8.30;;;22.30;26.80;;;;;;4973904;28;20186;-76
2023/09/17 02:10:26;;;;;;;8.73;8.23;;;22.20;26.70;;;;;;4975424;28;20208;-76
2023/09/17 02:12:52;;;;;;;9.60;9.00;;;22.20;26.70;;;;;;4975397;28;20237;-76
2023/09/17 02:15:18;;;;;;;9.03;8.53;;;22.20;26.80;;;;;;4974667;28;20198;-76
2023/09/17 02:17:44;;;;;;;8.07;7.67;;;22.20;26.80;;;;;;4973752;28;20526;-76
2023/09/17 02:20:11;;;;;;;8.00;7.63;;;22.20;26.80;;;;;;4974602;28;20425;-75
2023/09/17 02:22:38;;;;;;;9.20;8.70;;;22.20;27.30;;;;;;4974676;28;20229;-76
2023/09/17 02:25:05;;;;;;;8.80;8.40;;;22.20;26.70;;;;;;4972771;28;20479;-75
2023/09/17 02:27:31;;;;;;;8.97;8.37;;;22.20;27.00;;;;;;4977000;28;20485;-76
2023/09/17 02:29:57;;;;;;;8.57;8.17;;;22.20;27.10;;;;;;4978927;28;20780;-76
2023/09/17 02:32:23;;;;;;;9.13;8.60;;;22.20;27.20;;;;;;4974997;28;20498;-76
2023/09/17 02:34:49;;;;;;;8.67;8.17;;;22.10;27.30;;;;;;4974092;28;20222;-76
2023/09/17 02:37:14;;;;;;;9.53;9.03;;;22.10;27.50;;;;;;4974332;28;20549;-76
2023/09/17 02:39:40;;;;;;;9.03;8.43;;;22.10;27.40;;;;;;4973964;28;20472;-76
2023/09/17 02:42:06;;;;;;;9.90;9.30;;;22.00;27.60;;;;;;4974080;28;20175;-76
2023/09/17 02:44:31;;;;;;;9.00;8.50;;;22.10;27.60;;;;;;4974756;28;20253;-76
2023/09/17 02:46:57;;;;;;;9.13;8.63;;;22.10;27.80;;;;;;4978962;28;20175;-76
2023/09/17 02:49:23;;;;;;;8.50;8.00;;;22.00;27.70;;;;;;4977139;28;20599;-77
2023/09/17 02:51:51;;;;;;;9.93;9.37;;;22.00;27.90;;;;;;4978628;28;20183;-75
2023/09/17 02:54:17;;;;;;;8.53;8.13;;;21.90;27.90;;;;;;4978140;28;20214;-76
2023/09/17 02:56:42;;;;;;;9.30;8.60;;;21.90;28.10;;;;;;4978350;28;20456;-76
2023/09/17 02:59:08;;;;;;;8.93;8.47;;;21.90;28.10;;;;;;4978333;28;20174;-76
2023/09/17 03:01:35;;;;;;;9.27;8.77;;;21.90;28.20;;;;;;4977291;28;20539;-75
2023/09/17 03:04:01;;;;;;;8.73;8.23;;;21.90;28.30;;;;;;4979023;28;20594;-75
2023/09/17 03:06:26;;;;;;;8.67;8.27;;;21.90;28.30;;;;;;4976976;28;20442;-76
2023/09/17 03:08:54;;;;;;;9.80;9.20;;;21.80;28.40;;;;;;4976843;28;20777;-75
2023/09/17 03:11:21;;;;;;;8.83;8.30;;;21.80;28.60;;;;;;4977760;28;20187;-75
2023/09/17 03:13:47;;;;;;;9.17;8.70;;;21.80;28.50;;;;;;4977959;28;20556;-76
2023/09/17 03:16:15;;;;;;;9.47;8.97;;;21.80;28.60;;;;;;4976650;28;20816;-76
2023/09/17 03:18:41;;;;;;;9.70;9.10;;;21.80;28.60;;;;;;4977974;28;20414;-76
2023/09/17 03:21:06;;;;;;;9.53;9.00;;;21.80;28.60;;;;;;4977683;28;20482;-76
2023/09/17 03:23:33;;;;;;;10.03;9.43;;;21.80;28.50;;;;;;4978798;28;21009;-76
2023/09/17 03:26:00;;;;;;;10.10;9.50;;;21.70;28.60;;;;;;4977422;28;20229;-76
2023/09/17 03:28:27;;;;;;;9.83;9.03;;;21.70;28.70;;;;;;4978308;28;20437;-76
2023/09/17 03:30:53;;;;;;;9.73;9.23;;;21.80;28.80;;;;;;4978447;28;20413;-76
2023/09/17 03:33:18;;;;;;;10.10;9.50;;;21.70;28.80;;;;;;4976501;28;21045;-76
2023/09/17 03:35:44;;;;;;;9.70;9.20;;;21.70;28.80;;;;;;4978114;28;20474;-77
2023/09/17 03:38:09;;;;;;;9.67;9.03;;;21.70;28.80;;;;;;4978061;28;20178;-76
2023/09/17 03:40:35;;;;;;;9.90;9.40;;;21.80;28.90;;;;;;4977465;28;20194;-76
2023/09/17 03:43:00;;;;;;;10.70;10.10;;;21.70;28.80;;;;;;4976976;28;20673;-77
2023/09/17 03:45:27;;;;;;;11.50;10.80;;;21.70;29.00;;;;;;4977563;28;20195;-75
2023/09/17 03:47:52;;;;;;;10.23;9.70;;;21.70;29.10;;;;;;4977338;28;20666;-76
2023/09/17 03:50:18;;;;;;;10.00;9.50;;;21.70;29.00;;;;;;4975784;28;20413;-76
2023/09/17 03:52:47;;;;;;;9.30;8.80;;;21.70;29.10;;;;;;4977095;28;20171;-76
2023/09/17 03:55:14;;;;;;;9.50;9.00;;;21.60;29.30;;;;;;4976464;28;20211;-76
2023/09/17 03:57:40;;;;;;;10.07;9.47;;;21.60;29.70;;;;;;4976905;28;20415;-75
2023/09/17 04:00:07;;;;;;;8.87;8.37;;;21.60;29.70;;;;;;4976619;28;20420;-76
2023/09/17 04:02:37;;;;;;;10.10;9.50;;;21.60;29.70;;;;;;4976469;28;20461;-76
2023/09/17 04:05:11;;;;;;;9.03;8.53;;;21.60;29.70;;;;;;4976457;28;20801;-75
2023/09/17 04:07:38;;;;;;;9.23;8.73;;;21.60;29.80;;;;;;4976493;28;20417;-76
2023/09/17 04:10:06;;;;;;;10.30;9.70;;;21.60;29.90;;;;;;4975266;28;20429;-76
2023/09/17 04:12:35;;;;;;;10.03;9.43;;;21.60;29.90;;;;;;4974890;28;20422;-76
2023/09/17 04:15:10;;;;;;;9.70;9.20;;;21.50;30.00;;;;;;4976180;28;20470;-76
2023/09/17 04:17:36;;;;;;;9.60;9.00;;;21.50;30.00;;;;;;4975161;28;20592;-77
2023/09/17 04:20:03;;;;;;;9.83;9.23;;;21.50;30.10;;;;;;4974850;28;20981;-77
2023/09/17 04:22:28;;;;;;;9.67;9.00;;;21.40;30.20;;;;;;4976181;28;20220;-75
2023/09/17 04:24:55;;;;;;;9.73;9.03;;;21.40;30.60;;;;;;4976042;28;20950;-76
2023/09/17 04:27:20;;;;;;;10.23;9.67;;;21.40;30.80;;;;;;4975742;28;20669;-77
2023/09/17 04:29:46;;;;;;;9.60;8.90;;;21.40;31.40;;;;;;4975621;28;20418;-75
2023/09/17 04:32:12;;;;;;;9.77;9.17;;;21.40;30.50;;;;;;4975606;28;20183;-76
2023/09/17 04:34:38;;;;;;;10.57;9.97;;;21.40;30.60;;;;;;4975527;28;20202;-76
2023/09/17 04:37:03;;;;;;;9.63;9.03;;;21.50;30.80;;;;;;4975731;28;20213;-75
2023/09/17 04:39:29;;;;;;;9.80;9.10;;;21.50;30.70;;;;;;4975512;28;20651;-77
2023/09/17 04:41:54;;;;;;;10.10;9.33;;;21.50;30.70;;;;;;4975220;28;20166;-76
2023/09/17 04:44:20;;;;;;;9.70;9.20;;;21.50;30.60;;;;;;4975398;28;20181;-76
2023/09/17 04:46:47;;;;;;;10.27;9.67;;;21.50;30.80;;;;;;4975157;28;20179;-77
2023/09/17 04:49:13;;;;;;;10.00;9.50;;;21.50;30.80;;;;;;4975114;28;20171;-76
2023/09/17 04:51:39;;;;;;;10.07;9.37;;;21.40;31.10;;;;;;4974771;28;20437;-76
2023/09/17 04:54:05;;;;;;;9.40;8.90;;;21.40;31.10;;;;;;4974978;28;20202;-76
2023/09/17 04:56:31;;;;;;;9.43;8.73;;;21.40;31.10;;;;;;4974980;28;20205;-76
2023/09/17 04:59:00;;;;;;;9.70;9.20;;;21.40;31.10;;;;;;4975027;28;20823;-76
2023/09/17 05:01:26;;;;;;;10.83;10.10;;;21.40;31.10;;;;;;4974681;28;20410;-76
2023/09/17 05:03:52;;;;;;;10.87;10.20;;;21.30;31.00;;;;;;4975335;28;20461;-76
2023/09/17 05:06:18;;;;;;;10.03;9.53;;;21.40;31.10;;;;;;4975471;28;20434;-76
2023/09/17 05:08:43;;;;;;;9.87;9.27;;;21.40;31.10;;;;;;4974464;28;20257;-75
2023/09/17 05:11:09;;;;;;;9.90;9.30;;;21.30;31.00;;;;;;4973685;28;20516;-76
2023/09/17 05:13:35;;;;;;;11.10;10.50;;;21.40;31.10;;;;;;4974812;28;20331;-76
2023/09/17 05:16:01;;;;;;;10.60;10.00;;;21.30;31.00;;;;;;4973549;28;20194;-76
2023/09/17 05:18:26;;;;;;;10.87;10.27;;;21.30;31.20;;;;;;4975165;28;20312;-76
2023/09/17 05:20:54;;;;;;;10.60;10.00;;;21.40;31.70;;;;;;4975431;28;20457;-76
2023/09/17 05:23:23;;;;;;;10.50;9.90;;;21.30;31.90;;;;;;4975385;28;20694;-76
2023/09/17 05:25:49;;;;;;;11.40;10.70;;;21.30;32.00;;;;;;4974941;28;20458;-77
2023/09/17 05:28:15;;;;;;;10.50;9.77;;;21.20;32.30;;;;;;4973952;28;20418;-77
2023/09/17 05:30:41;;;;;;;10.20;9.70;;;21.30;32.50;;;;;;4973878;28;20423;-76
2023/09/17 05:33:07;;;;;;;11.10;10.50;;;21.20;32.60;;;;;;4973744;28;20171;-77
2023/09/17 05:35:36;;;;;;;10.50;9.80;;;21.20;32.80;;;;;;4974764;28;20961;-78
2023/09/17 05:38:03;;;;;;;10.67;10.07;;;21.20;32.80;;;;;;4974319;28;20426;-77
2023/09/17 05:40:29;;;;;;;10.33;9.83;;;21.20;32.70;;;;;;4975473;28;20502;-78
2023/09/17 05:42:57;;;;;;;11.00;10.10;;;21.30;32.70;;;;;;4975604;28;20421;-78
2023/09/17 05:45:23;;;;;;;11.60;10.90;;;21.20;32.60;;;;;;4975263;28;20264;-77
2023/09/17 05:47:54;;;;;;;10.60;10.00;;;21.30;32.70;;;;;;4976613;28;20414;-79
2023/09/17 05:50:19;;;;;;;10.73;10.13;;;21.30;32.90;;;;;;4976464;28;20808;-78
2023/09/17 05:52:45;;;;;;;11.27;10.67;;;21.30;33.00;;;;;;4976540;28;20508;-78
2023/09/17 05:55:10;;;;;;;11.20;10.60;;;21.30;33.10;;;;;;4977192;28;20210;-78
2023/09/17 05:57:37;;;;;;;10.93;10.30;;;21.30;33.10;;;;;;4976884;28;20245;-78
2023/09/17 06:00:03;;;;;;;11.60;11.00;;;21.30;33.20;;;;;;4976252;28;20898;-78
2023/09/17 06:02:29;;;;;;;11.70;11.00;;;21.30;33.00;;;;;;4976450;28;20171;-78
2023/09/17 06:04:55;;;;;;;11.17;10.47;;;21.30;33.30;;;;;;4975769;28;20492;-78
2023/09/17 06:07:21;;;;;;;10.90;10.30;;;21.30;33.20;;;;;;4975822;28;20789;-78
2023/09/17 06:09:46;;;;;;;11.57;10.60;;;21.30;33.10;;;;;;4975429;28;20175;-78
2023/09/17 06:12:12;;;;;;;11.17;10.37;;;21.30;33.20;;;;;;4975546;28;20198;-78
2023/09/17 06:14:38;;;;;;;10.80;10.20;;;21.40;33.20;;;;;;4976301;28;20198;-78
2023/09/17 06:17:04;;;;;;;10.97;10.33;;;21.40;33.40;;;;;;4975590;28;20623;-78
2023/09/17 06:19:30;;;;;;;11.20;10.60;;;21.40;33.50;;;;;;4973559;28;20674;-78
2023/09/17 06:21:55;;;;;;;10.73;10.13;;;21.40;33.40;;;;;;4976881;28;20182;-78
2023/09/17 06:24:21;;;;;;;11.60;10.90;;;21.40;33.40;;;;;;4974526;28;20178;-77
2023/09/17 06:26:46;;;;;;;11.67;10.97;;;21.40;33.10;;;;;;4975442;28;20198;-77
2023/09/17 06:29:12;;;;;;;11.40;10.70;;;21.50;33.30;;;;;;4975470;28;20221;-78
2023/09/17 06:31:38;;;;;;;11.70;10.80;;;21.50;33.10;;;;;;4974401;28;20233;-78
2023/09/17 06:34:04;;;;;;;11.50;10.90;;;21.50;32.80;;;;;;4975273;28;20210;-78
2023/09/17 06:36:29;;;;;;;12.60;11.60;;;21.60;32.70;;;;;;4975448;28;20824;-78
2023/09/17 06:38:55;;;;;;;11.93;11.23;;;21.60;32.90;;;;;;4975359;28;20257;-78
2023/09/17 06:41:21;;;;;;;11.40;10.70;;;21.60;32.20;;;;;;4974782;28;20234;-78
2023/09/17 06:43:47;;;;;;;11.50;10.67;;;21.50;32.60;;;;;;4975425;28;20552;-78
2023/09/17 06:46:12;;;;;;;12.47;11.33;;;21.50;32.80;;;;;;4974876;28;20198;-78
2023/09/17 06:48:38;;;;;;;11.87;11.17;;;21.40;33.10;;;;;;4974801;28;20421;-78
2023/09/17 06:51:03;;;;;;;11.60;10.90;;;21.30;33.20;;;;;;4974521;28;20209;-78
2023/09/17 06:53:29;;;;;;;11.67;11.07;;;21.40;33.60;;;;;;4974624;28;20698;-78
2023/09/17 06:55:58;;;;;;;12.60;11.77;;;21.40;33.60;;;;;;4974992;28;20194;-77
2023/09/17 06:58:23;;;;;;;11.27;10.67;;;21.30;33.30;;;;;;4975924;28;20640;-78
2023/09/17 07:00:49;;;;;;;12.07;11.37;;;21.30;33.40;;;;;;4982727;28;20557;-77
2023/09/17 07:03:14;;;;;;;11.43;10.80;;;21.30;33.70;;;;;;4985465;28;20186;-78
2023/09/17 07:05:40;;;;;;;11.57;10.77;;;21.30;33.60;;;;;;4974760;28;20214;-78
2023/09/17 07:08:06;;;;;;;11.10;10.40;;;21.30;33.50;;;;;;4975244;28;20179;-78
2023/09/17 07:10:32;;;;;;;11.03;10.33;;;21.30;33.80;;;;;;4975376;28;20171;-78
2023/09/17 07:12:58;;;;;;;11.80;11.10;;;21.40;33.70;;;;;;4975354;28;20237;-78
2023/09/17 07:15:25;;;;;;;11.70;11.00;;;21.50;33.30;;;;;;4975560;28;20441;-78
2023/09/17 07:17:51;;;;;;;11.83;10.80;;;21.60;33.00;;;;;;4975902;28;20190;-78
2023/09/17 07:20:19;;;;;;;11.60;10.70;;;21.70;32.70;;;;;;4977106;28;20406;-78
2023/09/17 07:22:45;;;;;;;10.43;9.93;;;21.70;32.40;;;;;;4975743;28;20171;-78
2023/09/17 07:25:11;;;;;;;10.90;10.13;;;21.70;32.30;;;;;;4974951;28;20442;-77
2023/09/17 07:27:37;;;;;;;10.63;9.93;;;21.80;32.30;;;;;;4971381;28;20537;-77
2023/09/17 07:30:03;;;;;;;11.47;10.70;;;21.80;31.40;;;;;;4972556;28;20175;-77
2023/09/17 07:32:29;;;;;;;10.60;10.00;;;21.80;31.40;;;;;;4975792;28;20174;-77
2023/09/17 07:34:55;;;;;;;11.67;10.97;;;21.90;31.50;;;;;;4976117;28;20544;-76
2023/09/17 07:37:21;;;;;;;11.57;10.87;;;21.90;31.50;;;;;;4976210;28;20754;-77
2023/09/17 07:39:47;;;;;;;10.13;9.53;;;22.00;31.60;;;;;;4976119;28;20417;-77
2023/09/17 07:42:13;;;;;;;11.27;10.57;;;22.00;31.60;;;;;;4976167;28;20937;-79
2023/09/17 07:44:40;;;;;;;11.10;10.27;;;22.00;31.20;;;;;;4976134;28;20469;-77
2023/09/17 07:47:06;;;;;;;11.07;10.47;;;22.10;30.40;;;;;;4976014;28;20422;-77
2023/09/17 07:49:32;;;;;;;11.23;10.63;;;22.20;29.10;;;;;;4976036;28;20471;-76
2023/09/17 07:51:58;;;;;;;10.00;9.40;;;22.20;29.30;;;;;;4975867;28;20922;-78
2023/09/17 07:54:23;;;;;;;10.43;9.50;;;22.20;29.50;;;;;;4974429;28;20218;-77
2023/09/17 07:56:49;;;;;;;10.70;10.00;;;22.30;29.60;;;;;;4976158;28;20433;-77
2023/09/17 07:59:14;;;;;;;9.40;8.97;;;22.30;29.10;;;;;;4975543;28;20551;-75
2023/09/17 08:01:40;;;;;;;10.77;10.00;;;22.40;29.10;;;;;;4975845;28;20668;-76
2023/09/17 08:04:05;;;;;;;10.53;9.93;;;22.40;29.40;;;;;;4975961;28;20713;-79
2023/09/17 08:06:34;;;;;;;10.17;9.57;;;22.50;28.40;;;;;;4975538;28;20206;-76
2023/09/17 08:09:00;;;;;;;10.30;9.80;;;22.50;28.10;;;;;;4975483;28;20179;-78
2023/09/17 08:11:29;;;;;;;9.07;8.47;;;22.60;28.10;;;;;;4974301;28;20422;-78
2023/09/17 08:13:55;;;;;;;10.87;10.17;;;22.70;27.10;;;;;;4975548;28;20540;-78
2023/09/17 08:16:21;;;;;;;10.13;9.33;;;22.70;27.40;;;;;;4975488;28;20441;-78
2023/09/17 08:18:46;;;;;;;9.30;8.70;;;22.70;26.70;;;;;;4975583;28;20407;-79
2023/09/17 08:21:12;;;;;;;8.33;7.83;;;22.80;25.30;;;;;;4976750;28;20202;-78
2023/09/17 08:23:37;;;;;;;8.60;7.90;;;23.00;25.20;;;;;;4975650;28;20556;-77
2023/09/17 08:26:04;;;;;;;8.73;8.33;;;23.10;24.50;;;;;;4975191;28;20210;-77
2023/09/17 08:28:30;;;;;;;8.37;7.67;;;23.20;24.10;;;;;;4975240;28;20175;-77
2023/09/17 08:30:56;;;;;;;8.30;7.80;;;23.30;23.00;;;;;;4976938;28;20918;-77
2023/09/17 08:33:21;;;;;;;7.20;6.80;;;23.40;22.90;;;;;;4977601;28;20198;-77
2023/09/17 08:35:47;;;;;;;8.00;7.43;;;23.50;21.70;;;;;;4976157;28;20206;-77
2023/09/17 08:38:12;;;;;;;8.10;7.60;;;23.70;21.20;;;;;;4979342;28;20490;-77
2023/09/17 08:40:39;;;;;;;7.17;6.70;;;23.90;21.00;;;;;;4975974;28;20554;-77
2023/09/17 08:43:05;;;;;;;8.33;7.83;;;24.00;20.60;;;;;;4976606;28;20209;-77
2023/09/17 08:45:31;;;;;;;8.20;7.70;;;24.10;20.50;;;;;;4975330;28;20429;-77
2023/09/17 08:47:57;;;;;;;7.73;7.33;;;24.20;20.30;;;;;;4975531;28;20171;-77
2023/09/17 08:50:24;;;;;;;8.10;7.70;;;24.20;20.30;;;;;;4974679;28;20821;-77
2023/09/17 08:52:56;;;;;;;8.43;7.83;;;24.20;20.30;;;;;;4974766;28;20408;-78
2023/09/17 08:55:23;;;;;;;8.03;7.43;;;24.30;20.30;;;;;;4974597;28;20465;-77
2023/09/17 08:57:57;;;;;;;7.93;7.43;;;24.30;20.40;;;;;;4974741;28;20504;-78
2023/09/17 09:00:23;;;;;;;7.97;7.47;;;24.50;19.80;;;;;;4974459;28;20421;-78
2023/09/17 09:02:59;;;;;;;7.90;7.40;;;24.80;19.50;;;;;;4974411;28;20418;-77
2023/09/17 09:05:27;;;;;;;8.63;7.80;;;25.00;19.20;;;;;;4974341;28;20957;-77
2023/09/17 09:07:55;;;;;;;8.70;8.00;;;25.20;19.50;;;;;;4974636;28;20414;-77
2023/09/17 09:10:21;;;;;;;7.33;6.73;;;25.30;18.10;;;;;;4974085;28;20414;-77
2023/09/17 09:12:47;;;;;;;7.13;6.67;;;25.50;17.60;;;;;;4974259;28;20414;-77
2023/09/17 09:15:13;;;;;;;6.73;6.33;;;25.70;16.80;;;;;;4974242;28;20465;-77
2023/09/17 09:17:39;;;;;;;8.00;7.20;;;25.90;16.20;;;;;;4974380;28;20418;-77
2023/09/17 09:20:10;;;;;;;6.60;6.20;;;26.10;15.50;;;;;;4972965;28;20171;-77
2023/09/17 09:22:37;;;;;;;7.03;6.33;;;26.20;15.30;;;;;;4974315;28;20485;-77
2023/09/17 09:25:05;;;;;;;7.43;6.83;;;26.30;15.30;;;;;;4974085;28;20453;-77
2023/09/17 09:27:30;;;;;;;7.77;7.07;;;26.40;14.80;;;;;;4974179;28;20533;-77
2023/09/17 09:29:56;;;;;;;7.03;6.43;;;26.50;14.40;;;;;;4974215;28;20421;-77
2023/09/17 09:32:21;;;;;;;7.27;6.80;;;26.60;14.10;;;;;;4973992;28;20187;-77
2023/09/17 09:34:48;;;;;;;7.67;7.10;;;26.60;13.60;;;;;;4973890;28;20579;-77
2023/09/17 09:37:13;;;;;;;7.53;7.00;;;26.70;14.00;;;;;;4973017;28;20631;-77
2023/09/17 09:39:42;;;;;;;7.27;6.90;;;26.70;13.70;;;;;;4973996;28;20493;-77
2023/09/17 09:42:11;;;;;;;7.00;6.60;;;26.70;14.00;;;;;;4973941;28;20162;-78
2023/09/17 09:44:37;;;;;;;8.13;6.60;;;26.80;13.60;;;;;;4973716;28;20428;-77
2023/09/17 09:47:04;;;;;;;7.67;7.17;;;26.90;13.40;;;;;;4974093;28;20501;-77
2023/09/17 09:49:42;;;;;;;6.77;6.17;;;26.90;13.10;;;;;;4973727;28;20269;-77
2023/09/17 09:52:08;;;;;;;7.07;6.77;;;26.90;13.00;;;;;;4973942;28;20410;-78
2023/09/17 09:54:35;;;;;;;6.83;6.33;;;27.00;13.10;;;;;;4973185;28;20602;-77
2023/09/17 09:57:03;;;;;;;8.07;7.47;;;27.00;13.10;;;;;;4975794;28;20662;-77
2023/09/17 09:59:29;;;;;;;11.43;7.60;;;27.10;13.10;;;;;;4972470;28;20422;-77
2023/09/17 10:01:54;;;;;;;9.10;7.57;;;27.10;13.10;;;;;;4973896;28;20441;-77
2023/09/17 10:04:20;;;;;;;8.10;7.50;;;27.10;13.10;;;;;;4972921;28;20458;-78
2023/09/17 10:06:46;;;;;;;6.80;6.50;;;27.10;13.70;;;;;;4974797;28;20261;-78
2023/09/17 10:09:13;;;;;;;7.70;7.00;;;27.10;13.40;;;;;;4975719;28;20205;-78
2023/09/17 10:11:38;;;;;;;7.80;7.30;;;27.20;13.20;;;;;;4975046;28;20741;-77
2023/09/17 10:14:08;;;;;;;7.67;7.00;;;27.20;13.50;;;;;;4974419;28;20513;-77
2023/09/17 10:16:37;;;;;;;7.47;7.17;;;27.20;13.20;;;;;;4974181;28;20217;-78
2023/09/17 10:19:04;;;;;;;8.90;8.00;;;27.30;12.90;;;;;;4974465;28;20421;-78
2023/09/17 10:21:33;;;;;;;8.03;7.33;;;27.30;11.30;;;;;;4974663;28;20976;-77
2023/09/17 10:24:00;;;;;;;7.43;6.83;;;27.40;11.80;;;;;;4977346;28;20553;-77
2023/09/17 10:26:32;;;;;;;7.83;7.30;;;27.50;11.70;;;;;;4979259;28;20449;-78
2023/09/17 10:29:00;;;;;;;7.33;6.73;;;27.60;11.10;;;;;;4975788;28;20522;-78
2023/09/17 10:31:26;;;;;;;7.57;6.87;;;27.70;10.70;;;;;;4977064;28;20419;-78
2023/09/17 10:33:54;;;;;;;6.90;6.57;;;27.70;10.50;;;;;;4976128;28;20992;-77
2023/09/17 10:36:21;;;;;;;7.80;7.30;;;27.70;10.20;;;;;;4982745;28;20437;-77
2023/09/17 10:38:48;;;;;;;7.67;6.97;;;27.70;10.10;;;;;;4985963;28;20496;-76
2023/09/17 10:41:15;;;;;;;8.10;7.50;;;27.70;9.90;;;;;;4985782;28;20409;-77
2023/09/17 10:43:43;;;;;;;8.73;6.43;;;27.70;10.00;;;;;;4984796;28;20413;-77
2023/09/17 10:46:11;;;;;;;7.30;6.90;;;27.70;10.00;;;;;;4980642;28;20438;-80
2023/09/17 10:48:40;;;;;;;10.13;9.20;;;27.70;10.20;;;;;;4972853;28;20429;-77
2023/09/17 10:51:07;;;;;;;7.60;7.10;;;27.70;10.10;;;;;;4975546;28;20410;-77
2023/09/17 10:53:33;;;;;;;7.97;7.37;;;27.80;10.10;;;;;;4973486;28;20957;-76
2023/09/17 10:56:03;;;;;;;8.83;8.40;;;27.80;10.50;;;;;;4974022;28;20438;-78
2023/09/17 10:58:42;;;;;;;7.83;7.30;;;27.70;10.60;;;;;;4973329;28;20183;-77
2023/09/17 11:01:14;;;;;;;7.67;7.13;;;27.80;10.70;;;;;;4973315;28;20606;-77
2023/09/17 11:03:44;;;;;;;9.03;7.73;;;27.90;10.40;;;;;;4973058;28;20434;-77
2023/09/17 11:06:23;;;;;;;7.63;6.60;;;27.90;10.30;;;;;;4975040;28;20434;-77
2023/09/17 11:08:51;;;;;;;7.40;6.90;;;27.90;9.90;;;;;;4977232;28;20414;-77
2023/09/17 11:11:18;;;;;;;7.83;6.40;;;28.00;9.10;;;;;;4977026;28;20461;-79
2023/09/17 11:13:46;;;;;;;7.27;6.77;;;28.00;9.10;;;;;;4976612;28;20469;-77
2023/09/17 11:16:21;;;;;;;6.40;6.07;;;28.00;9.10;;;;;;4976986;28;20430;-77
2023/09/17 11:19:13;;;;;;;7.67;6.77;;;27.90;9.00;;;;;;4977171;28;20416;-77
2023/09/17 11:21:42;;;;;;;5.90;5.70;;;27.90;9.00;;;;;;4973970;28;20682;-77
2023/09/17 11:24:12;;;;;;;7.50;7.00;;;27.80;9.20;;;;;;4975817;28;20476;-77
2023/09/17 11:26:41;;;;;;;7.30;6.90;;;27.90;9.90;;;;;;5026674;23;20496;-78
2023/09/17 11:29:09;;;;;;;7.07;6.67;;;28.00;10.00;;;;;;5009455;28;20508;-78
2023/09/17 11:31:52;;;;;;;9.17;6.00;;;28.00;9.40;;;;;;5017393;28;20428;-78
2023/09/17 11:34:18;;;;;;;6.27;5.83;;;28.00;9.90;;;;;;4999931;28;20475;-78
2023/09/17 11:36:46;;;;;;;6.97;6.40;;;27.80;11.20;;;;;;5016903;28;20454;-78
2023/09/17 11:39:15;;;;;;;7.80;7.20;;;27.70;10.30;;;;;;5016038;28;20432;-78
2023/09/17 11:41:46;;;;;;;6.40;6.00;;;27.80;9.40;;;;;;5017474;28;20450;-78
2023/09/17 11:44:12;;;;;;;5.80;5.30;;;27.90;9.10;;;;;;5017577;28;20444;-78
2023/09/17 11:46:38;;;;;;;5.53;5.33;;;28.00;9.10;;;;;;5017401;28;20448;-77
2023/09/17 11:49:03;;;;;;;6.70;5.70;;;28.00;8.90;;;;;;5017042;28;20478;-78
2023/09/17 11:51:31;;;;;;;5.97;5.57;;;28.00;9.10;;;;;;5017519;28;20676;-78
2023/09/17 11:54:04;;;;;;;7.70;6.40;;;27.90;8.70;;;;;;5017753;28;20284;-78
2023/09/17 11:56:35;;;;;;;6.30;6.00;;;27.80;9.00;;;;;;5016959;28;20523;-78
2023/09/17 11:59:15;;;;;;;6.40;6.00;;;27.80;9.00;;;;;;5015797;28;20431;-78
2023/09/17 12:01:52;;;;;;;5.60;5.40;;;27.90;9.00;;;;;;5017282;28;20428;-78
2023/09/17 12:04:19;;;;;;;7.03;6.40;;;28.00;9.10;;;;;;5009599;28;20443;-78
2023/09/17 12:06:48;;;;;;;6.20;5.80;;;27.90;9.00;;;;;;5017468;28;20810;-78
2023/09/17 12:09:31;;;;;;;6.60;6.30;;;27.90;9.20;;;;;;5017695;28;20432;-78
2023/09/17 12:11:58;;;;;;;6.67;6.27;;;28.00;9.10;;;;;;5017668;28;20507;-78
2023/09/17 12:14:24;;;;;;;6.70;6.40;;;28.00;9.10;;;;;;5018009;28;20479;-78
2023/09/17 12:16:50;;;;;;;8.70;6.90;;;28.00;9.10;;;;;;5015520;28;20453;-78
2023/09/17 12:19:17;;;;;;;6.10;5.80;;;28.00;9.10;;;;;;5017497;28;20428;-79
2023/09/17 12:21:45;;;;;;;6.20;5.77;;;27.90;9.00;;;;;;5016915;28;20773;-79
2023/09/17 12:24:28;;;;;;;6.73;6.33;;;27.80;9.60;;;;;;5017512;28;20454;-78
2023/09/17 12:29:59;;;;;;;10.60;6.53;;;27.90;9.00;;;;;;5016574;28;20515;-79
2023/09/17 12:32:27;;;;;;;7.20;6.73;;;27.90;9.00;;;;;;5017230;28;20454;-79
2023/09/17 12:34:54;;;;;;;5.70;5.23;;;27.90;9.00;;;;;;5017029;28;20455;-79
2023/09/17 12:37:20;;;;;;;6.47;6.07;;;28.00;9.00;;;;;;5016542;28;20972;-79
2023/09/17 12:39:47;;;;;;;5.10;4.70;;;28.00;9.10;;;;;;5016841;28;20458;-79
2023/09/17 12:42:13;;;;;;;5.87;5.43;;;27.90;9.00;;;;;;5017189;28;20842;-78
2023/09/17 12:44:39;;;;;;;6.07;5.63;;;28.00;8.80;;;;;;5017053;28;20455;-78
2023/09/17 12:47:06;;;;;;;6.10;5.70;;;27.90;8.80;;;;;;5016467;28;20428;-78